Time;durP1;ratioP1;P1;durP2;ratioP2;P2;SDS_P1;SDS_P2;PMS_P1;PMS_P2;Temp;Humidity;BMP_temperature;BMP_pressure;BME280_temperature;BME280_humidity;BME280_pressure;Samples;Min_cycle;Max_cycle;Signal;HPM_P1;HPM_P2
2023/01/16 00:02:08;;;;;;;0.22;0.22;;;5.40;99.90;;;;;;5042047;28;20029;-82
2023/01/16 00:04:35;;;;;;;0.20;0.20;;;5.30;99.90;;;;;;5048740;28;20044;-82
2023/01/16 00:07:00;;;;;;;0.10;0.10;;;5.40;99.90;;;;;;5043631;28;20465;-83
2023/01/16 00:09:26;;;;;;;0.17;0.17;;;5.50;99.90;;;;;;5043946;28;20055;-82
2023/01/16 00:11:52;;;;;;;0.25;0.25;;;5.40;99.90;;;;;;5044998;28;20461;-83
2023/01/16 00:14:18;;;;;;;0.10;0.10;;;5.40;99.90;;;;;;5060118;28;20032;-82
2023/01/16 00:16:43;;;;;;;0.10;0.10;;;5.40;99.90;;;;;;5044529;28;20510;-83
2023/01/16 00:19:09;;;;;;;0.10;0.10;;;5.40;99.90;;;;;;5047775;28;20624;-82
2023/01/16 00:21:35;;;;;;;0.10;0.10;;;5.40;99.90;;;;;;5042700;28;20052;-82
2023/01/16 00:24:00;;;;;;;0.20;0.20;;;5.40;99.90;;;;;;5060565;28;20029;-82
2023/01/16 00:26:28;;;;;;;0.20;0.20;;;5.30;99.90;;;;;;5043417;28;20071;-84
2023/01/16 00:28:54;;;;;;;0.10;0.10;;;5.40;99.90;;;;;;5044174;28;20074;-84
2023/01/16 00:31:20;;;;;;;0.22;0.22;;;5.40;99.90;;;;;;5045172;28;20037;-86
2023/01/16 00:33:45;;;;;;;0.10;0.10;;;5.30;99.90;;;;;;5039979;28;20036;-85
2023/01/16 00:36:12;;;;;;;0.25;0.25;;;5.30;99.90;;;;;;5043030;28;21079;-85
2023/01/16 00:38:38;;;;;;;0.10;0.10;;;5.20;99.90;;;;;;5054806;28;20035;-84
2023/01/16 00:41:04;;;;;;;0.20;0.20;;;5.20;99.90;;;;;;5044484;28;20041;-83
2023/01/16 00:43:29;;;;;;;2.90;0.60;;;5.20;99.90;;;;;;5044906;28;20040;-83
2023/01/16 00:45:56;;;;;;;0.20;0.20;;;5.20;99.90;;;;;;5044805;28;20141;-83
2023/01/16 00:48:22;;;;;;;0.55;0.55;;;5.20;99.90;;;;;;5044711;28;20036;-83
2023/01/16 00:50:48;;;;;;;0.20;0.20;;;5.30;99.90;;;;;;5043915;28;20068;-83
2023/01/16 00:53:14;;;;;;;0.10;0.10;;;5.30;99.90;;;;;;5043794;28;20039;-83
2023/01/16 00:55:41;;;;;;;0.35;0.35;;;5.30;99.90;;;;;;5044362;28;20035;-82
2023/01/16 00:58:08;;;;;;;2.78;1.02;;;5.30;99.90;;;;;;5044503;28;20060;-83
2023/01/16 01:00:34;;;;;;;0.20;0.20;;;5.20;99.90;;;;;;5044151;28;20036;-83
2023/01/16 01:03:01;;;;;;;0.10;0.10;;;5.10;99.90;;;;;;5044435;28;20049;-84
2023/01/16 01:05:27;;;;;;;0.10;0.10;;;5.00;99.90;;;;;;5045000;28;20031;-80
2023/01/16 01:07:53;;;;;;;0.10;0.10;;;4.90;99.90;;;;;;5044266;28;20033;-81
2023/01/16 01:10:18;;;;;;;0.30;0.30;;;5.10;99.90;;;;;;5043619;28;20547;-80
2023/01/16 01:12:44;;;;;;;0.10;0.10;;;5.10;99.90;;;;;;5043973;28;20021;-81
2023/01/16 01:15:10;;;;;;;0.10;0.10;;;4.90;99.90;;;;;;5044920;28;20021;-81
2023/01/16 01:17:36;;;;;;;0.22;0.22;;;4.90;99.90;;;;;;5044079;28;20543;-81
2023/01/16 01:20:02;;;;;;;0.20;0.20;;;4.80;99.90;;;;;;5044170;28;20028;-84
2023/01/16 01:22:28;;;;;;;0.30;0.30;;;4.90;99.90;;;;;;5044157;28;20111;-83
2023/01/16 01:24:54;;;;;;;0.60;0.60;;;4.80;99.90;;;;;;5044837;28;20041;-82
2023/01/16 01:27:19;;;;;;;0.13;0.13;;;4.70;99.90;;;;;;5044499;28;20156;-83
2023/01/16 01:29:45;;;;;;;0.13;0.13;;;4.90;99.90;;;;;;5045283;28;20395;-83
2023/01/16 01:32:11;;;;;;;0.10;0.10;;;4.90;99.90;;;;;;5045269;28;20025;-80
2023/01/16 01:34:37;;;;;;;0.10;0.10;;;4.90;99.90;;;;;;5046298;28;20055;-85
2023/01/16 01:37:04;;;;;;;0.10;0.10;;;4.80;99.90;;;;;;5045748;28;20029;-85
2023/01/16 01:39:30;;;;;;;0.10;0.10;;;4.80;99.90;;;;;;5046499;28;20032;-80
2023/01/16 01:44:47;;;;;;;0.20;0.20;;;4.80;99.90;;;;;;5038548;28;20075;-81
2023/01/16 01:47:14;;;;;;;0.10;0.10;;;4.80;99.90;;;;;;5044432;28;20459;-80
2023/01/16 01:49:40;;;;;;;0.10;0.10;;;4.90;99.90;;;;;;5046367;28;20029;-82
2023/01/16 01:52:07;;;;;;;0.40;0.40;;;4.90;99.90;;;;;;5045657;28;20044;-82
2023/01/16 01:54:39;;;;;;;0.10;0.10;;;4.90;99.90;;;;;;5045761;28;20025;-82
2023/01/16 01:57:19;;;;;;;0.10;0.10;;;5.00;99.90;;;;;;5045258;28;20396;-82
2023/01/16 02:00:10;;;;;;;0.30;0.30;;;4.90;99.90;;;;;;5045150;28;20021;-84
2023/01/16 02:02:43;;;;;;;0.13;0.13;;;4.90;99.90;;;;;;5037391;28;20048;-82
2023/01/16 02:05:12;;;;;;;0.15;0.15;;;4.90;99.90;;;;;;5043490;28;20174;-81
2023/01/16 02:07:38;;;;;;;0.30;0.30;;;4.90;99.90;;;;;;5042916;28;20401;-81
2023/01/16 02:10:32;;;;;;;0.10;0.10;;;5.00;99.90;;;;;;5059901;28;20090;-82
2023/01/16 02:13:01;;;;;;;0.10;0.10;;;5.00;99.90;;;;;;5036237;28;20789;-81
2023/01/16 02:15:27;;;;;;;0.30;0.30;;;5.10;99.90;;;;;;5037772;28;20020;-84
2023/01/16 02:21:09;;;;;;;0.10;0.10;;;5.00;99.90;;;;;;5042644;28;20040;-82
2023/01/16 02:23:47;;;;;;;0.15;0.15;;;5.10;99.90;;;;;;5042692;28;20044;-82
2023/01/16 02:26:19;;;;;;;0.10;0.10;;;5.00;99.90;;;;;;5042640;28;20041;-82
2023/01/16 02:29:06;;;;;;;0.20;0.20;;;5.10;99.90;;;;;;5042605;28;20108;-83
2023/01/16 02:31:54;;;;;;;0.10;0.10;;;5.10;99.90;;;;;;5040268;28;20033;-83
2023/01/16 02:34:56;;;;;;;0.35;0.35;;;5.10;99.90;;;;;;5042161;28;20033;-84
2023/01/16 02:37:44;;;;;;;16.02;1.80;;;5.00;99.90;;;;;;5045665;28;20724;-82
2023/01/16 02:40:15;;;;;;;0.25;0.25;;;4.90;99.90;;;;;;5048702;28;20819;-84
2023/01/16 02:42:58;;;;;;;0.10;0.10;;;4.90;99.90;;;;;;5041562;28;20065;-81
2023/01/16 02:45:42;;;;;;;0.65;0.65;;;4.90;99.90;;;;;;5044571;28;20610;-85
2023/01/16 02:48:31;;;;;;;0.20;0.20;;;4.80;99.90;;;;;;5037280;28;20067;-81
2023/01/16 02:51:12;;;;;;;0.10;0.10;;;4.80;99.90;;;;;;5042216;28;20120;-82
2023/01/16 02:53:56;;;;;;;0.10;0.10;;;4.60;99.90;;;;;;5041616;28;20484;-83
2023/01/16 02:56:30;;;;;;;1.95;0.95;;;4.30;99.90;;;;;;5042392;28;20112;-83
2023/01/16 02:58:57;;;;;;;0.17;0.17;;;4.30;99.90;;;;;;5041694;28;20029;-82
2023/01/16 03:01:23;;;;;;;0.10;0.10;;;4.30;99.90;;;;;;5042701;28;20033;-82
2023/01/16 03:03:55;;;;;;;0.10;0.10;;;4.30;99.90;;;;;;5054085;28;20034;-84
2023/01/16 03:06:39;;;;;;;2.08;0.73;;;4.30;99.90;;;;;;5035857;28;20061;-83
2023/01/16 03:09:34;;;;;;;0.10;0.10;;;4.20;99.90;;;;;;5042415;28;20114;-83
2023/01/16 03:12:26;;;;;;;0.10;0.10;;;4.10;99.90;;;;;;5040570;28;20037;-83
2023/01/16 03:15:21;;;;;;;0.22;0.22;;;4.20;99.90;;;;;;5038080;28;20083;-83
2023/01/16 03:18:05;;;;;;;0.10;0.10;;;4.30;99.90;;;;;;5040095;28;20029;-82
2023/01/16 03:21:02;;;;;;;0.10;0.10;;;4.10;99.90;;;;;;5042128;28;20028;-83
2023/01/16 03:23:54;;;;;;;0.10;0.10;;;4.00;99.90;;;;;;5039744;28;20041;-84
2023/01/16 03:26:29;;;;;;;0.20;0.20;;;4.10;99.90;;;;;;5033421;28;20530;-84
2023/01/16 03:29:15;;;;;;;0.38;0.38;;;4.10;99.90;;;;;;5042029;28;20028;-82
2023/01/16 03:31:44;;;;;;;;;;;4.10;99.90;;;;;;5042573;28;20032;-82
2023/01/16 03:34:31;;;;;;;0.10;0.10;;;4.10;99.90;;;;;;5040767;28;19915;-82
2023/01/16 03:37:09;;;;;;;0.10;0.10;;;4.20;99.90;;;;;;5042142;28;20025;-81
2023/01/16 03:39:42;;;;;;;0.10;0.10;;;4.30;99.90;;;;;;5039906;28;20037;-84
2023/01/16 03:42:13;;;;;;;0.10;0.10;;;4.20;99.90;;;;;;5036802;28;20041;-82
2023/01/16 03:44:44;;;;;;;0.10;0.10;;;4.10;99.90;;;;;;5042437;28;20021;-82
2023/01/16 03:47:15;;;;;;;0.10;0.10;;;4.30;99.90;;;;;;5042231;28;20028;-82
2023/01/16 03:49:45;;;;;;;0.10;0.10;;;4.30;99.90;;;;;;5050962;28;20133;-82
2023/01/16 03:52:13;;;;;;;0.10;0.10;;;4.40;99.90;;;;;;5041884;28;20025;-83
2023/01/16 03:54:50;;;;;;;37.70;0.98;;;4.40;99.90;;;;;;5041989;28;20848;-82
2023/01/16 03:57:21;;;;;;;0.20;0.20;;;4.30;99.90;;;;;;5041923;28;20021;-82
2023/01/16 03:59:49;;;;;;;0.10;0.10;;;4.30;99.90;;;;;;5041983;28;20519;-82
2023/01/16 04:02:27;;;;;;;0.10;0.10;;;4.30;99.90;;;;;;5041796;28;20072;-84
2023/01/16 04:04:59;;;;;;;0.10;0.10;;;4.40;99.90;;;;;;5041450;28;20037;-83
2023/01/16 04:07:34;;;;;;;0.20;0.20;;;4.40;99.90;;;;;;5038860;28;20048;-83
2023/01/16 04:10:04;;;;;;;0.10;0.10;;;4.40;99.90;;;;;;5039475;28;20061;-82
2023/01/16 04:12:35;;;;;;;1.05;1.05;;;4.30;99.90;;;;;;5030297;28;20032;-82
2023/01/16 04:15:05;;;;;;;0.10;0.10;;;4.30;99.90;;;;;;5041412;28;20483;-81
2023/01/16 04:17:31;;;;;;;0.10;0.10;;;4.30;99.90;;;;;;5041649;28;20017;-82
2023/01/16 04:19:57;;;;;;;0.20;0.20;;;4.40;99.90;;;;;;5040907;28;20044;-81
2023/01/16 04:22:27;;;;;;;0.10;0.10;;;4.30;99.90;;;;;;5040143;28;20072;-83
2023/01/16 04:24:55;;;;;;;0.10;0.10;;;4.30;99.90;;;;;;5041044;28;20032;-80
2023/01/16 04:27:21;;;;;;;0.75;0.75;;;4.40;99.90;;;;;;5043159;28;20510;-81
2023/01/16 04:29:47;;;;;;;0.10;0.10;;;4.30;99.90;;;;;;5044744;28;20028;-80
2023/01/16 04:32:13;;;;;;;0.10;0.10;;;4.40;99.90;;;;;;5043753;28;20118;-81
2023/01/16 04:34:39;;;;;;;0.10;0.10;;;4.40;99.90;;;;;;5044756;28;20064;-82
2023/01/16 04:37:05;;;;;;;0.10;0.10;;;4.40;99.90;;;;;;5045057;28;20029;-81
2023/01/16 04:39:31;;;;;;;0.10;0.10;;;4.40;99.90;;;;;;5044866;28;20021;-81
2023/01/16 04:41:57;;;;;;;0.35;0.35;;;4.40;99.90;;;;;;5045255;28;20090;-81
2023/01/16 04:44:24;;;;;;;0.25;0.25;;;4.40;99.90;;;;;;5044864;28;20079;-81
2023/01/16 04:46:50;;;;;;;0.10;0.10;;;4.40;99.90;;;;;;5044666;28;20032;-82
2023/01/16 04:49:16;;;;;;;0.10;0.10;;;4.40;99.90;;;;;;5044756;28;20544;-82
2023/01/16 04:51:42;;;;;;;0.10;0.10;;;4.40;99.90;;;;;;5045126;28;20048;-82
2023/01/16 04:54:13;;;;;;;0.10;0.10;;;4.50;99.90;;;;;;5044634;28;20044;-81
2023/01/16 04:56:38;;;;;;;0.10;0.10;;;4.50;99.90;;;;;;5044928;28;20400;-81
2023/01/16 04:59:04;;;;;;;0.10;0.10;;;4.50;99.90;;;;;;5043341;28;20029;-81
2023/01/16 05:01:34;;;;;;;0.10;0.10;;;4.40;99.90;;;;;;5043662;28;20084;-81
2023/01/16 05:04:04;;;;;;;0.10;0.10;;;4.50;99.90;;;;;;5043167;28;20058;-81
2023/01/16 05:06:30;;;;;;;0.10;0.10;;;4.50;99.90;;;;;;5039932;28;20038;-83
2023/01/16 05:08:55;;;;;;;0.30;0.30;;;4.50;99.90;;;;;;5043053;28;20753;-82
2023/01/16 05:11:21;;;;;;;0.10;0.10;;;4.60;99.90;;;;;;5047142;28;20583;-81
2023/01/16 05:13:47;;;;;;;0.40;0.40;;;4.60;99.90;;;;;;5045647;28;20029;-81
2023/01/16 05:16:12;;;;;;;0.10;0.10;;;4.60;99.90;;;;;;5044645;28;20021;-81
2023/01/16 05:18:38;;;;;;;0.63;0.63;;;4.60;99.90;;;;;;5044644;28;20029;-82
2023/01/16 05:21:05;;;;;;;0.10;0.10;;;4.50;99.90;;;;;;5045028;28;20439;-82
2023/01/16 05:23:34;;;;;;;3.72;0.90;;;4.50;99.90;;;;;;5042013;28;20124;-82
2023/01/16 05:26:01;;;;;;;0.32;0.32;;;4.50;99.90;;;;;;5044437;28;20021;-81
2023/01/16 05:28:27;;;;;;;0.20;0.20;;;4.50;99.90;;;;;;5044269;28;20047;-82
2023/01/16 05:30:53;;;;;;;0.10;0.10;;;4.40;99.90;;;;;;5044722;28;20025;-81
2023/01/16 05:33:19;;;;;;;0.10;0.10;;;4.50;99.90;;;;;;5044809;28;20056;-83
2023/01/16 05:35:46;;;;;;;0.10;0.10;;;4.60;99.90;;;;;;5044360;28;20024;-83
2023/01/16 05:38:12;;;;;;;;;;;4.50;99.90;;;;;;5036569;28;20036;-82
2023/01/16 05:40:37;;;;;;;0.10;0.10;;;4.50;99.90;;;;;;5043001;28;19908;-82
2023/01/16 05:43:03;;;;;;;0.10;0.10;;;4.50;99.90;;;;;;5044358;28;20047;-83
2023/01/16 05:45:29;;;;;;;0.23;0.23;;;4.50;99.90;;;;;;5044403;28;20017;-83
2023/01/16 05:47:55;;;;;;;0.10;0.10;;;4.60;99.90;;;;;;5043932;28;20255;-82
2023/01/16 05:50:21;;;;;;;0.10;0.10;;;4.60;99.90;;;;;;5042745;28;20036;-82
2023/01/16 05:52:46;;;;;;;0.10;0.10;;;4.50;99.90;;;;;;5042164;28;20403;-81
2023/01/16 05:55:12;;;;;;;0.50;0.50;;;4.60;99.90;;;;;;5044134;28;20029;-81
2023/01/16 05:57:38;;;;;;;0.47;0.47;;;4.50;99.90;;;;;;5043942;28;20021;-82
2023/01/16 06:00:05;;;;;;;1.08;1.08;;;4.60;99.90;;;;;;5048766;28;20036;-81
2023/01/16 06:02:31;;;;;;;0.10;0.10;;;4.70;99.90;;;;;;5041824;28;20046;-81
2023/01/16 06:04:57;;;;;;;0.20;0.20;;;4.60;99.90;;;;;;5043514;28;20048;-82
2023/01/16 06:07:23;;;;;;;0.43;0.40;;;4.60;99.90;;;;;;5034193;28;20025;-82
2023/01/16 06:09:49;;;;;;;0.20;0.20;;;4.50;99.90;;;;;;5050552;28;20431;-82
2023/01/16 06:12:16;;;;;;;0.10;0.10;;;4.50;99.90;;;;;;5048484;28;20425;-84
2023/01/16 06:14:41;;;;;;;;;;;4.50;99.90;;;;;;5044481;28;20037;-82
2023/01/16 06:17:07;;;;;;;0.13;0.13;;;4.50;99.90;;;;;;5043194;28;20532;-83
2023/01/16 06:19:33;;;;;;;0.45;0.45;;;4.60;99.90;;;;;;5046154;28;20025;-85
2023/01/16 06:21:59;;;;;;;0.10;0.10;;;4.60;99.90;;;;;;5035788;28;20037;-84
2023/01/16 06:24:24;;;;;;;0.10;0.10;;;4.70;99.90;;;;;;5035583;28;20031;-84
2023/01/16 06:26:50;;;;;;;0.10;0.10;;;4.50;99.90;;;;;;5029608;28;20033;-83
2023/01/16 06:29:16;;;;;;;0.10;0.10;;;4.60;99.90;;;;;;5039919;28;20434;-83
2023/01/16 06:31:42;;;;;;;0.20;0.20;;;4.50;99.90;;;;;;5050411;28;20024;-84
2023/01/16 06:34:07;;;;;;;0.10;0.10;;;4.60;99.90;;;;;;5047193;28;20029;-83
2023/01/16 06:36:33;;;;;;;0.13;0.13;;;4.50;99.90;;;;;;5045468;28;20104;-84
2023/01/16 06:38:59;;;;;;;0.10;0.10;;;4.60;99.90;;;;;;5047319;28;20029;-87
2023/01/16 06:41:24;;;;;;;0.10;0.10;;;4.60;99.90;;;;;;5040271;28;20354;-85
2023/01/16 06:43:50;;;;;;;0.35;0.35;;;4.40;99.90;;;;;;5028256;28;20037;-85
2023/01/16 06:46:16;;;;;;;0.10;0.10;;;4.40;99.90;;;;;;5042589;28;20052;-85
2023/01/16 06:48:42;;;;;;;0.32;0.32;;;4.50;99.90;;;;;;5041926;28;20029;-86
2023/01/16 06:51:09;;;;;;;0.40;0.40;;;4.60;99.90;;;;;;5039756;28;20499;-85
2023/01/16 06:53:36;;;;;;;0.10;0.10;;;4.60;99.90;;;;;;5043558;28;20126;-84
2023/01/16 06:56:02;;;;;;;0.20;0.20;;;4.70;99.90;;;;;;5043260;28;20025;-84
2023/01/16 06:58:27;;;;;;;0.10;0.10;;;4.80;99.90;;;;;;5031922;28;20064;-85
2023/01/16 07:00:54;;;;;;;0.10;0.10;;;4.80;99.90;;;;;;5058460;28;20044;-85
2023/01/16 07:03:21;;;;;;;0.20;0.20;;;4.80;99.90;;;;;;5043266;28;20148;-86
2023/01/16 07:05:46;;;;;;;0.10;0.10;;;4.90;99.90;;;;;;5042146;28;20028;-86
2023/01/16 07:08:13;;;;;;;0.10;0.10;;;4.90;99.90;;;;;;5040673;28;20666;-85
2023/01/16 07:10:39;;;;;;;0.75;0.73;;;4.80;99.90;;;;;;5048063;28;20031;-82
2023/01/16 07:13:05;;;;;;;0.10;0.10;;;4.80;99.90;;;;;;5042851;28;20036;-85
2023/01/16 07:24:10;;;;;;;0.10;0.10;;;4.90;99.90;;;;;;5041363;28;20047;-86
2023/01/16 07:26:39;;;;;;;0.10;0.10;;;4.90;99.90;;;;;;5036092;28;20034;-86
2023/01/16 07:29:05;;;;;;;0.20;0.20;;;5.00;99.90;;;;;;5042363;28;20033;-86
2023/01/16 07:31:33;;;;;;;0.43;0.43;;;5.00;99.90;;;;;;5042742;28;20021;-86
2023/01/16 07:33:59;;;;;;;0.10;0.10;;;5.00;99.90;;;;;;5027606;28;20018;-86
2023/01/16 07:36:24;;;;;;;0.20;0.20;;;4.90;99.90;;;;;;5035282;28;20599;-86
2023/01/16 07:38:50;;;;;;;0.20;0.20;;;4.90;99.90;;;;;;5042592;28;20769;-86
2023/01/16 07:41:16;;;;;;;0.20;0.20;;;4.80;99.90;;;;;;5039081;28;20033;-86
2023/01/16 07:43:42;;;;;;;0.52;0.52;;;4.90;99.90;;;;;;5042438;28;20036;-86
2023/01/16 07:46:08;;;;;;;0.10;0.10;;;4.90;99.90;;;;;;5042779;28;20511;-87
2023/01/16 07:48:33;;;;;;;0.68;0.68;;;5.00;99.90;;;;;;5042858;28;20128;-86
2023/01/16 07:50:59;;;;;;;0.40;0.40;;;5.00;99.90;;;;;;5046352;28;20024;-85
2023/01/16 07:53:27;;;;;;;0.20;0.20;;;5.00;99.90;;;;;;5039550;28;20017;-86
2023/01/16 07:55:56;;;;;;;0.13;0.13;;;4.90;99.90;;;;;;5049894;28;20037;-86
2023/01/16 07:58:21;;;;;;;0.35;0.35;;;5.00;99.90;;;;;;5042549;28;20056;-86
2023/01/16 08:00:48;;;;;;;0.10;0.10;;;5.10;99.90;;;;;;5050221;28;20129;-86
2023/01/16 08:03:15;;;;;;;0.75;0.75;;;5.10;99.90;;;;;;5037892;28;20032;-86
2023/01/16 08:05:43;;;;;;;2.17;1.27;;;5.10;99.90;;;;;;5046036;28;20033;-87
2023/01/16 08:08:09;;;;;;;0.10;0.10;;;5.10;99.90;;;;;;5044468;28;20053;-86
2023/01/16 08:10:36;;;;;;;0.20;0.20;;;5.00;99.90;;;;;;5047617;28;20499;-87
2023/01/16 08:13:02;;;;;;;0.75;0.75;;;5.10;99.90;;;;;;5051649;28;20664;-87
2023/01/16 08:15:27;;;;;;;0.30;0.30;;;5.00;99.90;;;;;;5046033;28;20029;-86
2023/01/16 08:17:53;;;;;;;0.10;0.10;;;4.90;99.90;;;;;;5045941;28;20021;-85
2023/01/16 08:20:19;;;;;;;0.20;0.20;;;5.00;99.90;;;;;;5045373;28;20025;-85
2023/01/16 08:22:46;;;;;;;0.10;0.10;;;5.00;99.90;;;;;;5045321;28;20456;-87
2023/01/16 08:25:13;;;;;;;0.80;0.80;;;4.90;99.90;;;;;;5045920;28;20029;-86
2023/01/16 08:27:39;;;;;;;;;;;4.90;99.90;;;;;;5042157;28;20098;-86
2023/01/16 08:30:06;;;;;;;0.30;0.30;;;4.90;99.90;;;;;;5045767;28;19912;-86
2023/01/16 08:32:31;;;;;;;0.10;0.10;;;5.00;99.90;;;;;;5045976;28;20256;-86
2023/01/16 08:34:57;;;;;;;0.10;0.10;;;5.00;99.90;;;;;;5045717;28;20087;-85
2023/01/16 08:37:23;;;;;;;0.10;0.10;;;5.00;99.90;;;;;;5045606;28;20072;-86
2023/01/16 08:39:49;;;;;;;0.10;0.10;;;5.20;99.90;;;;;;5045452;28;20112;-86
2023/01/16 08:53:11;;;;;;;0.30;0.30;;;5.00;99.90;;;;;;5045139;28;20082;-86
2023/01/16 08:55:38;;;;;;;0.30;0.30;;;5.00;99.90;;;;;;5045033;28;20675;-86
2023/01/16 08:58:05;;;;;;;0.20;0.20;;;5.20;99.90;;;;;;5044799;28;20025;-86
2023/01/16 09:00:31;;;;;;;0.85;0.85;;;5.20;99.90;;;;;;5045290;28;20037;-86
2023/01/16 09:02:59;;;;;;;0.10;0.10;;;5.20;99.90;;;;;;5044786;28;20140;-86
2023/01/16 09:05:25;;;;;;;0.10;0.10;;;5.20;99.90;;;;;;5044757;28;20255;-86
2023/01/16 09:07:51;;;;;;;0.25;0.25;;;5.40;99.90;;;;;;5044005;28;20021;-86
2023/01/16 09:10:17;;;;;;;0.20;0.20;;;5.50;99.90;;;;;;5042766;28;20039;-86
2023/01/16 09:15:28;;;;;;;0.30;0.30;;;6.00;99.90;;;;;;5044419;28;20041;-85
2023/01/16 09:17:54;;;;;;;0.65;0.47;;;5.90;99.90;;;;;;5044299;28;20266;-86
2023/01/16 09:20:20;;;;;;;1.95;1.17;;;5.90;99.90;;;;;;5044433;28;20035;-86
2023/01/16 09:22:46;;;;;;;0.35;0.35;;;5.90;99.90;;;;;;5044187;28;20064;-87
2023/01/16 09:25:12;;;;;;;0.10;0.10;;;5.90;99.90;;;;;;5044435;28;20028;-86
2023/01/16 09:27:37;;;;;;;0.20;0.20;;;6.00;99.90;;;;;;5040762;28;20491;-86
2023/01/16 09:30:04;;;;;;;11.13;0.55;;;6.10;99.90;;;;;;5044783;28;20036;-86
2023/01/16 09:32:30;;;;;;;0.10;0.10;;;6.10;99.90;;;;;;5044221;28;20036;-87
2023/01/16 09:34:57;;;;;;;0.10;0.10;;;6.20;99.90;;;;;;5043822;28;20025;-85
2023/01/16 09:37:22;;;;;;;2.03;0.70;;;6.30;99.90;;;;;;5044475;28;20513;-85
2023/01/16 09:39:48;;;;;;;0.22;0.22;;;6.20;99.90;;;;;;5044410;28;20029;-86
2023/01/16 09:45:15;;;;;;;0.10;0.10;;;5.80;99.90;;;;;;5042422;28;20100;-86
2023/01/16 09:47:45;;;;;;;0.52;0.52;;;5.70;99.90;;;;;;5043927;28;20060;-86
2023/01/16 09:50:36;;;;;;;0.20;0.20;;;5.60;99.90;;;;;;5043822;28;20021;-86
2023/01/16 09:58:46;;;;;;;3.30;0.52;;;5.70;99.90;;;;;;5038463;28;20835;-87
2023/01/16 10:01:30;;;;;;;1.55;1.23;;;5.70;99.90;;;;;;5043540;28;20500;-86
2023/01/16 10:04:18;;;;;;;0.60;0.45;;;5.80;99.90;;;;;;5043733;28;20024;-86
2023/01/16 10:07:03;;;;;;;1.20;1.10;;;5.90;99.90;;;;;;5041049;28;20021;-86
2023/01/16 10:09:35;;;;;;;0.17;0.17;;;6.20;99.90;;;;;;5044230;28;20056;-85
2023/01/16 10:12:11;;;;;;;0.10;0.10;;;6.30;99.90;;;;;;5044130;28;20314;-87
2023/01/16 10:14:43;;;;;;;1.40;1.15;;;6.30;99.90;;;;;;5044117;28;20032;-86
2023/01/16 10:17:43;;;;;;;1.88;1.33;;;6.30;99.90;;;;;;5043664;28;20025;-87
2023/01/16 10:20:21;;;;;;;0.10;0.10;;;6.30;99.90;;;;;;5043044;28;20772;-86
2023/01/16 10:23:12;;;;;;;0.15;0.15;;;6.50;99.90;;;;;;5042728;28;20446;-86
2023/01/16 10:25:55;;;;;;;0.10;0.10;;;6.40;99.90;;;;;;5043006;28;20111;-86
2023/01/16 10:28:57;;;;;;;20.98;2.70;;;6.30;99.90;;;;;;5039913;28;20448;-86
2023/01/16 10:31:36;;;;;;;2.83;1.90;;;6.10;99.90;;;;;;5039557;28;20090;-86
2023/01/16 10:34:20;;;;;;;0.88;0.52;;;6.10;99.90;;;;;;5043276;28;20021;-86
2023/01/16 10:36:50;;;;;;;1.45;1.10;;;6.20;99.90;;;;;;5040912;28;20124;-86
2023/01/16 10:39:19;;;;;;;0.30;0.30;;;6.40;99.90;;;;;;5043141;28;20057;-85
2023/01/16 10:50:08;;;;;;;0.10;0.10;;;7.90;99.90;;;;;;5042681;28;19962;-86
2023/01/16 10:52:35;;;;;;;1.02;1.02;;;7.60;99.90;;;;;;5042302;28;20033;-86
2023/01/16 10:55:01;;;;;;;;;;;7.20;99.90;;;;;;5041677;28;20029;-86
2023/01/16 10:57:27;;;;;;;0.10;0.10;;;6.60;99.90;;;;;;5042877;28;19939;-86
2023/01/16 11:00:05;;;;;;;0.10;0.10;;;6.50;99.90;;;;;;5042987;28;20488;-86
2023/01/16 11:02:40;;;;;;;2.75;1.00;;;6.40;99.90;;;;;;5041993;28;20079;-86
2023/01/16 11:05:27;;;;;;;0.10;0.10;;;6.40;99.90;;;;;;5035223;28;20487;-87
2023/01/16 11:07:54;;;;;;;0.10;0.10;;;5.10;99.90;;;;;;5057610;28;20025;-86
2023/01/16 11:10:20;;;;;;;;;;;4.90;99.90;;;;;;5043109;28;20033;-86
2023/01/16 11:18:29;;;;;;;0.17;0.17;;;4.80;99.90;;;;;;5040951;28;20761;-86
2023/01/16 11:21:02;;;;;;;0.10;0.10;;;4.70;99.90;;;;;;5037722;28;20113;-86
2023/01/16 11:23:38;;;;;;;0.10;0.10;;;4.80;99.90;;;;;;5042187;28;20515;-85
2023/01/16 11:26:05;;;;;;;0.32;0.25;;;4.90;99.90;;;;;;5044193;28;20021;-86
2023/01/16 11:28:31;;;;;;;0.10;0.10;;;5.20;99.90;;;;;;5051407;28;20464;-87
2023/01/16 11:31:03;;;;;;;0.10;0.10;;;5.10;99.90;;;;;;5042167;28;20534;-86
2023/01/16 11:33:36;;;;;;;0.20;0.20;;;5.40;99.90;;;;;;5041486;28;20307;-87
2023/01/16 11:36:04;;;;;;;0.10;0.10;;;5.40;99.90;;;;;;5040552;28;20028;-86
2023/01/16 11:38:37;;;;;;;0.30;0.30;;;5.10;99.90;;;;;;5041053;28;20021;-87
2023/01/16 11:41:08;;;;;;;0.10;0.10;;;5.10;99.90;;;;;;5041990;28;20108;-86
2023/01/16 11:46:27;;;;;;;0.10;0.10;;;5.10;99.90;;;;;;5041627;28;20110;-87
2023/01/16 11:48:57;;;;;;;0.52;0.52;;;5.20;99.90;;;;;;5042124;28;20577;-86
2023/01/16 11:51:37;;;;;;;0.10;0.10;;;4.90;99.90;;;;;;5040515;28;20110;-86
2023/01/16 11:54:10;;;;;;;0.10;0.10;;;4.90;99.90;;;;;;5042524;28;20028;-86
2023/01/16 11:56:54;;;;;;;0.10;0.10;;;4.70;99.90;;;;;;5042634;28;20043;-86
2023/01/16 11:59:38;;;;;;;0.10;0.10;;;4.70;99.90;;;;;;5038870;28;20456;-86
2023/01/16 12:02:41;;;;;;;0.10;0.10;;;4.90;99.90;;;;;;5041869;28;20108;-86
2023/01/16 12:08:19;;;;;;;0.10;0.10;;;5.10;99.90;;;;;;5041442;28;20056;-86
2023/01/16 12:11:06;;;;;;;0.10;0.10;;;4.90;99.90;;;;;;5044815;28;20028;-86
2023/01/16 12:16:49;;;;;;;0.10;0.10;;;5.00;99.90;;;;;;5036091;28;20654;-87
2023/01/16 12:19:49;;;;;;;0.20;0.20;;;5.10;99.90;;;;;;5037865;28;20033;-85
2023/01/16 12:22:27;;;;;;;0.10;0.10;;;5.00;99.90;;;;;;5049926;28;20148;-86
2023/01/16 12:25:27;;;;;;;0.10;0.10;;;4.80;99.90;;;;;;5037863;28;20029;-86
2023/01/16 12:28:04;;;;;;;0.10;0.10;;;4.70;99.90;;;;;;5038014;28;20071;-85
2023/01/16 12:30:47;;;;;;;2.33;0.85;;;4.50;99.90;;;;;;5041779;28;20052;-85
2023/01/16 12:33:26;;;;;;;0.10;0.10;;;4.50;99.90;;;;;;5041586;28;20116;-86
2023/01/16 12:36:01;;;;;;;0.10;0.10;;;4.80;99.90;;;;;;5041055;28;20067;-86
2023/01/16 12:38:35;;;;;;;0.10;0.10;;;5.00;99.90;;;;;;5041529;28;20267;-86
2023/01/16 12:44:10;;;;;;;0.10;0.10;;;5.10;99.90;;;;;;5041370;28;20723;-86
2023/01/16 12:46:55;;;;;;;0.10;0.10;;;5.40;99.90;;;;;;5041095;28;20143;-86
2023/01/16 12:49:30;;;;;;;0.10;0.10;;;5.70;99.90;;;;;;5043674;28;20377;-86
2023/01/16 12:52:20;;;;;;;0.10;0.10;;;6.10;99.90;;;;;;5044725;28;20028;-86
2023/01/16 12:55:08;;;;;;;0.10;0.10;;;6.00;99.90;;;;;;5044861;28;20060;-86
2023/01/16 12:58:16;;;;;;;0.10;0.10;;;6.10;99.90;;;;;;5044065;28;20028;-87
2023/01/16 13:01:11;;;;;;;0.10;0.10;;;5.80;99.90;;;;;;5044101;28;20036;-86
2023/01/16 13:03:52;;;;;;;1.55;0.73;;;5.90;99.90;;;;;;5041691;28;20021;-86
2023/01/16 13:06:34;;;;;;;0.10;0.10;;;6.00;99.90;;;;;;5044979;28;20059;-86
2023/01/16 13:09:07;;;;;;;0.10;0.10;;;5.90;99.90;;;;;;5044275;28;20052;-85
2023/01/16 13:14:25;;;;;;;0.28;0.25;;;5.90;99.90;;;;;;5034328;28;20598;-86
2023/01/16 13:17:02;;;;;;;0.10;0.10;;;5.90;99.90;;;;;;5044111;28;20641;-85
2023/01/16 13:19:32;;;;;;;0.10;0.10;;;6.10;99.90;;;;;;5044500;28;20063;-85
2023/01/16 13:22:16;;;;;;;0.10;0.10;;;6.20;99.90;;;;;;5044660;28;20082;-86
2023/01/16 13:25:05;;;;;;;0.10;0.10;;;6.30;99.90;;;;;;5038919;28;20021;-87
2023/01/16 13:27:48;;;;;;;0.10;0.10;;;6.30;99.90;;;;;;5041238;28;20029;-86
2023/01/16 13:30:17;;;;;;;0.10;0.10;;;6.10;99.90;;;;;;5055153;28;20059;-86
2023/01/16 13:32:52;;;;;;;0.10;0.10;;;6.10;99.90;;;;;;5044518;28;20029;-87
2023/01/16 13:35:38;;;;;;;0.10;0.10;;;5.90;99.90;;;;;;5044125;28;20031;-86
2023/01/16 13:38:25;;;;;;;0.10;0.10;;;5.80;99.90;;;;;;5042193;28;20090;-86
2023/01/16 13:40:50;;;;;;;;;;;5.80;99.90;;;;;;5042658;28;20579;-86
2023/01/16 13:46:17;;;;;;;0.20;0.20;;;5.80;99.90;;;;;;5043550;28;20498;-86
2023/01/16 13:48:49;;;;;;;0.20;0.20;;;6.00;99.90;;;;;;5043977;28;20051;-86
2023/01/16 13:51:19;;;;;;;0.15;0.15;;;5.60;99.90;;;;;;5037860;28;20028;-86
2023/01/16 13:53:50;;;;;;;0.90;0.85;;;5.60;99.90;;;;;;5039058;28;20017;-86
2023/01/16 13:56:20;;;;;;;0.30;0.30;;;5.80;99.90;;;;;;5043939;28;20803;-85
2023/01/16 13:59:11;;;;;;;0.10;0.10;;;5.70;99.90;;;;;;5043123;28;20067;-85
2023/01/16 14:01:56;;;;;;;0.10;0.10;;;5.70;99.90;;;;;;5043755;28;20051;-86
2023/01/16 14:04:23;;;;;;;0.10;0.10;;;5.50;99.90;;;;;;5069728;28;20956;-87
2023/01/16 14:06:50;;;;;;;0.13;0.13;;;5.40;99.90;;;;;;5041291;28;20033;-85
2023/01/16 14:09:21;;;;;;;0.15;0.15;;;5.40;99.90;;;;;;5043672;28;20059;-86
2023/01/16 14:12:20;;;;;;;0.10;0.10;;;5.30;99.90;;;;;;5049612;28;20029;-86
2023/01/16 14:17:52;;;;;;;0.25;0.25;;;5.30;99.90;;;;;;5038998;28;20031;-87
2023/01/16 14:20:44;;;;;;;0.20;0.20;;;5.30;99.90;;;;;;5042291;28;20055;-86
2023/01/16 14:26:23;;;;;;;0.10;0.10;;;5.30;99.90;;;;;;5042035;28;20110;-85
2023/01/16 14:28:54;;;;;;;0.20;0.20;;;5.10;99.90;;;;;;5043712;28;20520;-86
2023/01/16 14:31:40;;;;;;;0.15;0.15;;;5.20;99.90;;;;;;5043171;28;20029;-86
2023/01/16 14:34:14;;;;;;;0.10;0.10;;;5.30;99.90;;;;;;5038434;28;20507;-86
2023/01/16 14:36:42;;;;;;;0.10;0.10;;;5.40;99.90;;;;;;5037299;28;20060;-87